sensor_id;sensor_type;location;lat;lon;timestamp;temperature;humidity
31129;DHT22;17777;48.770;8.944;2022-08-21T00:01:48;21.80;44.30
31129;DHT22;17777;48.770;8.944;2022-08-21T00:04:14;21.80;44.40
31129;DHT22;17777;48.770;8.944;2022-08-21T00:06:40;21.70;44.30
31129;DHT22;17777;48.770;8.944;2022-08-21T00:09:07;21.70;44.40
31129;DHT22;17777;48.770;8.944;2022-08-21T00:11:35;21.70;44.40
31129;DHT22;17777;48.770;8.944;2022-08-21T00:14:04;21.70;44.40
31129;DHT22;17777;48.770;8.944;2022-08-21T00:16:30;21.70;44.40
31129;DHT22;17777;48.770;8.944;2022-08-21T00:18:56;21.60;44.40
31129;DHT22;17777;48.770;8.944;2022-08-21T00:21:21;21.60;44.40
31129;DHT22;17777;48.770;8.944;2022-08-21T00:23:47;21.60;44.50
31129;DHT22;17777;48.770;8.944;2022-08-21T00:26:13;21.60;44.50
31129;DHT22;17777;48.770;8.944;2022-08-21T00:28:39;21.50;44.60
31129;DHT22;17777;48.770;8.944;2022-08-21T00:31:05;21.50;44.60
31129;DHT22;17777;48.770;8.944;2022-08-21T00:33:31;21.50;44.60
31129;DHT22;17777;48.770;8.944;2022-08-21T00:35:57;21.50;44.70
31129;DHT22;17777;48.770;8.944;2022-08-21T00:38:23;21.40;44.70
31129;DHT22;17777;48.770;8.944;2022-08-21T00:40:53;21.40;44.70
31129;DHT22;17777;48.770;8.944;2022-08-21T00:43:24;21.40;44.60
31129;DHT22;17777;48.770;8.944;2022-08-21T00:45:54;21.40;44.70
31129;DHT22;17777;48.770;8.944;2022-08-21T00:48:21;21.30;44.60
31129;DHT22;17777;48.770;8.944;2022-08-21T00:51:10;21.30;44.60
31129;DHT22;17777;48.770;8.944;2022-08-21T00:53:41;21.20;44.70
31129;DHT22;17777;48.770;8.944;2022-08-21T00:56:09;21.20;44.70
31129;DHT22;17777;48.770;8.944;2022-08-21T00:58:38;21.10;44.60
31129;DHT22;17777;48.770;8.944;2022-08-21T01:01:06;21.10;44.70
31129;DHT22;17777;48.770;8.944;2022-08-21T01:03:34;21.00;44.70
31129;DHT22;17777;48.770;8.944;2022-08-21T01:06:01;21.00;44.70
31129;DHT22;17777;48.770;8.944;2022-08-21T01:08:29;21.00;44.80
31129;DHT22;17777;48.770;8.944;2022-08-21T01:10:56;20.90;44.80
31129;DHT22;17777;48.770;8.944;2022-08-21T01:13:25;20.90;44.90
31129;DHT22;17777;48.770;8.944;2022-08-21T01:15:53;20.90;44.90
31129;DHT22;17777;48.770;8.944;2022-08-21T01:18:21;20.80;44.90
31129;DHT22;17777;48.770;8.944;2022-08-21T01:21:09;20.80;44.90
31129;DHT22;17777;48.770;8.944;2022-08-21T01:23:39;20.80;45.00
31129;DHT22;17777;48.770;8.944;2022-08-21T01:26:09;20.70;44.80
31129;DHT22;17777;48.770;8.944;2022-08-21T01:28:42;20.60;44.90
31129;DHT22;17777;48.770;8.944;2022-08-21T01:31:10;20.60;44.90
31129;DHT22;17777;48.770;8.944;2022-08-21T01:33:38;20.60;45.00
31129;DHT22;17777;48.770;8.944;2022-08-21T01:36:04;20.50;45.00
31129;DHT22;17777;48.770;8.944;2022-08-21T01:38:30;20.50;45.10
31129;DHT22;17777;48.770;8.944;2022-08-21T01:40:56;20.50;45.10
31129;DHT22;17777;48.770;8.944;2022-08-21T01:43:22;20.40;45.10
31129;DHT22;17777;48.770;8.944;2022-08-21T01:45:47;20.40;45.20
31129;DHT22;17777;48.770;8.944;2022-08-21T01:48:13;20.40;45.20
31129;DHT22;17777;48.770;8.944;2022-08-21T01:50:39;20.30;45.10
31129;DHT22;17777;48.770;8.944;2022-08-21T01:53:05;20.30;45.20
31129;DHT22;17777;48.770;8.944;2022-08-21T01:55:31;20.30;45.20
31129;DHT22;17777;48.770;8.944;2022-08-21T01:57:58;20.30;45.30
31129;DHT22;17777;48.770;8.944;2022-08-21T02:00:25;20.30;45.30
31129;DHT22;17777;48.770;8.944;2022-08-21T02:02:51;20.20;45.20
31129;DHT22;17777;48.770;8.944;2022-08-21T02:05:18;20.20;45.30
31129;DHT22;17777;48.770;8.944;2022-08-21T02:07:47;20.20;45.30
31129;DHT22;17777;48.770;8.944;2022-08-21T02:10:22;20.20;45.30
31129;DHT22;17777;48.770;8.944;2022-08-21T02:12:52;20.10;45.30
31129;DHT22;17777;48.770;8.944;2022-08-21T02:15:18;20.10;45.30
31129;DHT22;17777;48.770;8.944;2022-08-21T02:17:51;20.10;45.30
31129;DHT22;17777;48.770;8.944;2022-08-21T02:20:24;20.00;45.40
31129;DHT22;17777;48.770;8.944;2022-08-21T02:22:53;20.00;45.40
31129;DHT22;17777;48.770;8.944;2022-08-21T02:25:20;20.00;45.40
31129;DHT22;17777;48.770;8.944;2022-08-21T02:27:47;20.00;45.40
31129;DHT22;17777;48.770;8.944;2022-08-21T02:30:17;20.00;45.50
31129;DHT22;17777;48.770;8.944;2022-08-21T02:32:44;20.00;45.50
31129;DHT22;17777;48.770;8.944;2022-08-21T02:35:11;20.00;45.50
31129;DHT22;17777;48.770;8.944;2022-08-21T02:37:51;19.90;45.40
31129;DHT22;17777;48.770;8.944;2022-08-21T02:40:21;19.90;45.50
31129;DHT22;17777;48.770;8.944;2022-08-21T02:42:49;19.90;45.50
31129;DHT22;17777;48.770;8.944;2022-08-21T02:45:16;19.90;45.50
31129;DHT22;17777;48.770;8.944;2022-08-21T02:47:53;19.80;45.50
31129;DHT22;17777;48.770;8.944;2022-08-21T02:50:27;19.80;45.60
31129;DHT22;17777;48.770;8.944;2022-08-21T02:52:54;19.80;45.60
31129;DHT22;17777;48.770;8.944;2022-08-21T02:55:21;19.80;45.60
31129;DHT22;17777;48.770;8.944;2022-08-21T02:57:48;19.70;45.50
31129;DHT22;17777;48.770;8.944;2022-08-21T03:00:15;19.70;45.60
31129;DHT22;17777;48.770;8.944;2022-08-21T03:02:41;19.70;45.60
31129;DHT22;17777;48.770;8.944;2022-08-21T03:05:09;19.70;45.60
31129;DHT22;17777;48.770;8.944;2022-08-21T03:07:36;19.60;45.60
31129;DHT22;17777;48.770;8.944;2022-08-21T03:10:06;19.60;45.70
31129;DHT22;17777;48.770;8.944;2022-08-21T03:12:33;19.60;45.70
31129;DHT22;17777;48.770;8.944;2022-08-21T03:15:03;19.50;45.70
31129;DHT22;17777;48.770;8.944;2022-08-21T03:17:29;19.50;45.80
31129;DHT22;17777;48.770;8.944;2022-08-21T03:19:55;19.50;45.80
31129;DHT22;17777;48.770;8.944;2022-08-21T03:22:22;19.50;45.80
31129;DHT22;17777;48.770;8.944;2022-08-21T03:24:48;19.50;45.80
31129;DHT22;17777;48.770;8.944;2022-08-21T03:27:13;19.40;45.80
31129;DHT22;17777;48.770;8.944;2022-08-21T03:29:40;19.50;45.90
31129;DHT22;17777;48.770;8.944;2022-08-21T03:32:06;19.40;45.80
31129;DHT22;17777;48.770;8.944;2022-08-21T03:34:35;19.40;45.90
31129;DHT22;17777;48.770;8.944;2022-08-21T03:37:04;19.40;45.90
31129;DHT22;17777;48.770;8.944;2022-08-21T03:39:31;19.40;45.80
31129;DHT22;17777;48.770;8.944;2022-08-21T03:41:57;19.40;45.90
31129;DHT22;17777;48.770;8.944;2022-08-21T03:44:25;19.40;45.90
31129;DHT22;17777;48.770;8.944;2022-08-21T03:46:54;19.30;45.80
31129;DHT22;17777;48.770;8.944;2022-08-21T03:49:21;19.30;45.80
31129;DHT22;17777;48.770;8.944;2022-08-21T03:51:47;19.30;45.80
31129;DHT22;17777;48.770;8.944;2022-08-21T03:54:12;19.30;45.80
31129;DHT22;17777;48.770;8.944;2022-08-21T03:56:38;19.20;45.90
31129;DHT22;17777;48.770;8.944;2022-08-21T03:59:05;19.10;45.90
31129;DHT22;17777;48.770;8.944;2022-08-21T04:01:31;19.20;45.90
31129;DHT22;17777;48.770;8.944;2022-08-21T04:03:57;19.10;45.90
31129;DHT22;17777;48.770;8.944;2022-08-21T04:06:24;19.10;46.00
31129;DHT22;17777;48.770;8.944;2022-08-21T04:08:52;19.00;45.90
31129;DHT22;17777;48.770;8.944;2022-08-21T04:11:19;19.00;46.00
31129;DHT22;17777;48.770;8.944;2022-08-21T04:13:45;19.00;46.00
31129;DHT22;17777;48.770;8.944;2022-08-21T04:16:11;18.90;46.00
31129;DHT22;17777;48.770;8.944;2022-08-21T04:18:38;19.00;46.20
31129;DHT22;17777;48.770;8.944;2022-08-21T04:21:05;18.90;46.10
31129;DHT22;17777;48.770;8.944;2022-08-21T04:23:31;18.90;46.20
31129;DHT22;17777;48.770;8.944;2022-08-21T04:25:57;18.90;46.20
31129;DHT22;17777;48.770;8.944;2022-08-21T04:28:25;18.80;46.20
31129;DHT22;17777;48.770;8.944;2022-08-21T04:30:52;18.80;46.20
31129;DHT22;17777;48.770;8.944;2022-08-21T04:33:19;18.80;46.30
31129;DHT22;17777;48.770;8.944;2022-08-21T04:35:45;18.70;46.30
31129;DHT22;17777;48.770;8.944;2022-08-21T04:38:11;18.70;46.30
31129;DHT22;17777;48.770;8.944;2022-08-21T04:40:37;18.70;46.30
31129;DHT22;17777;48.770;8.944;2022-08-21T04:43:09;18.70;46.40
31129;DHT22;17777;48.770;8.944;2022-08-21T04:45:38;18.70;46.40
31129;DHT22;17777;48.770;8.944;2022-08-21T04:48:10;18.70;46.40
31129;DHT22;17777;48.770;8.944;2022-08-21T04:56:26;18.80;46.40
31129;DHT22;17777;48.770;8.944;2022-08-21T04:58:59;18.70;46.40
31129;DHT22;17777;48.770;8.944;2022-08-21T05:01:29;18.70;46.40
31129;DHT22;17777;48.770;8.944;2022-08-21T05:03:59;18.70;46.40
31129;DHT22;17777;48.770;8.944;2022-08-21T05:06:28;18.70;46.40
31129;DHT22;17777;48.770;8.944;2022-08-21T05:08:56;18.70;46.40
31129;DHT22;17777;48.770;8.944;2022-08-21T05:11:23;18.60;46.40
31129;DHT22;17777;48.770;8.944;2022-08-21T05:13:49;18.60;46.40
31129;DHT22;17777;48.770;8.944;2022-08-21T05:16:16;18.60;46.50
31129;DHT22;17777;48.770;8.944;2022-08-21T05:18:43;18.60;46.50
31129;DHT22;17777;48.770;8.944;2022-08-21T05:21:09;18.60;46.60
31129;DHT22;17777;48.770;8.944;2022-08-21T05:23:35;18.60;46.60
31129;DHT22;17777;48.770;8.944;2022-08-21T05:26:01;18.60;47.30
31129;DHT22;17777;48.770;8.944;2022-08-21T05:28:27;18.60;46.70
31129;DHT22;17777;48.770;8.944;2022-08-21T05:30:53;18.60;46.70
31129;DHT22;17777;48.770;8.944;2022-08-21T05:33:19;18.60;46.80
31129;DHT22;17777;48.770;8.944;2022-08-21T05:35:45;18.60;46.80
31129;DHT22;17777;48.770;8.944;2022-08-21T05:38:10;18.60;46.80
31129;DHT22;17777;48.770;8.944;2022-08-21T05:40:36;18.70;46.90
31129;DHT22;17777;48.770;8.944;2022-08-21T05:43:03;18.70;46.80
31129;DHT22;17777;48.770;8.944;2022-08-21T05:45:32;18.70;46.90
31129;DHT22;17777;48.770;8.944;2022-08-21T05:48:05;18.70;46.90
31129;DHT22;17777;48.770;8.944;2022-08-21T05:50:39;18.80;47.00
31129;DHT22;17777;48.770;8.944;2022-08-21T05:53:06;18.80;46.90
31129;DHT22;17777;48.770;8.944;2022-08-21T05:55:31;18.80;47.00
31129;DHT22;17777;48.770;8.944;2022-08-21T05:57:57;18.80;46.90
31129;DHT22;17777;48.770;8.944;2022-08-21T06:00:24;18.90;47.00
31129;DHT22;17777;48.770;8.944;2022-08-21T06:02:49;18.90;47.00
31129;DHT22;17777;48.770;8.944;2022-08-21T06:05:16;18.90;47.00
31129;DHT22;17777;48.770;8.944;2022-08-21T06:07:43;19.00;47.10
31129;DHT22;17777;48.770;8.944;2022-08-21T06:10:09;19.00;47.10
31129;DHT22;17777;48.770;8.944;2022-08-21T06:12:35;19.00;47.20
31129;DHT22;17777;48.770;8.944;2022-08-21T06:15:01;19.10;47.20
31129;DHT22;17777;48.770;8.944;2022-08-21T06:17:27;19.10;47.20
31129;DHT22;17777;48.770;8.944;2022-08-21T06:19:53;19.20;47.30
31129;DHT22;17777;48.770;8.944;2022-08-21T06:22:19;19.20;47.30
31129;DHT22;17777;48.770;8.944;2022-08-21T06:24:45;19.20;47.30
31129;DHT22;17777;48.770;8.944;2022-08-21T06:27:12;19.30;47.30
31129;DHT22;17777;48.770;8.944;2022-08-21T06:29:38;19.40;47.40
31129;DHT22;17777;48.770;8.944;2022-08-21T06:32:04;19.50;47.40
31129;DHT22;17777;48.770;8.944;2022-08-21T06:34:36;19.50;47.40
31129;DHT22;17777;48.770;8.944;2022-08-21T06:37:04;19.60;47.40
31129;DHT22;17777;48.770;8.944;2022-08-21T06:39:30;19.70;47.40
31129;DHT22;17777;48.770;8.944;2022-08-21T06:41:57;19.80;47.40
31129;DHT22;17777;48.770;8.944;2022-08-21T06:44:27;19.90;47.40
31129;DHT22;17777;48.770;8.944;2022-08-21T06:46:54;20.00;47.40
31129;DHT22;17777;48.770;8.944;2022-08-21T06:49:20;20.10;47.50
31129;DHT22;17777;48.770;8.944;2022-08-21T06:51:46;20.20;47.50
31129;DHT22;17777;48.770;8.944;2022-08-21T06:54:11;20.30;47.50
31129;DHT22;17777;48.770;8.944;2022-08-21T06:56:37;20.40;47.50
31129;DHT22;17777;48.770;8.944;2022-08-21T06:59:04;20.40;47.40
31129;DHT22;17777;48.770;8.944;2022-08-21T07:01:31;20.50;47.40
31129;DHT22;17777;48.770;8.944;2022-08-21T07:03:57;20.70;47.40
31129;DHT22;17777;48.770;8.944;2022-08-21T07:06:24;20.70;47.40
31129;DHT22;17777;48.770;8.944;2022-08-21T07:08:50;20.80;47.30
31129;DHT22;17777;48.770;8.944;2022-08-21T07:11:21;20.90;47.30
31129;DHT22;17777;48.770;8.944;2022-08-21T07:13:50;21.00;47.30
31129;DHT22;17777;48.770;8.944;2022-08-21T07:16:18;21.10;47.30
31129;DHT22;17777;48.770;8.944;2022-08-21T07:18:44;21.30;47.30
31129;DHT22;17777;48.770;8.944;2022-08-21T07:21:11;21.40;47.30
31129;DHT22;17777;48.770;8.944;2022-08-21T07:23:40;21.40;47.20
31129;DHT22;17777;48.770;8.944;2022-08-21T07:26:08;21.50;47.20
31129;DHT22;17777;48.770;8.944;2022-08-21T07:28:34;21.60;46.70
31129;DHT22;17777;48.770;8.944;2022-08-21T07:31:02;21.70;47.20
31129;DHT22;17777;48.770;8.944;2022-08-21T07:33:30;21.90;47.20
31129;DHT22;17777;48.770;8.944;2022-08-21T07:35:59;22.00;47.10
31129;DHT22;17777;48.770;8.944;2022-08-21T07:38:25;22.10;47.70
31129;DHT22;17777;48.770;8.944;2022-08-21T07:40:55;22.20;47.10
31129;DHT22;17777;48.770;8.944;2022-08-21T07:43:22;22.30;47.00
31129;DHT22;17777;48.770;8.944;2022-08-21T07:45:48;22.40;47.00
31129;DHT22;17777;48.770;8.944;2022-08-21T07:48:17;22.40;46.90
31129;DHT22;17777;48.770;8.944;2022-08-21T07:50:43;22.60;46.90
31129;DHT22;17777;48.770;8.944;2022-08-21T07:53:09;22.60;46.80
31129;DHT22;17777;48.770;8.944;2022-08-21T07:55:35;22.80;46.80
31129;DHT22;17777;48.770;8.944;2022-08-21T07:58:01;22.90;46.80
31129;DHT22;17777;48.770;8.944;2022-08-21T08:00:28;23.00;46.70
31129;DHT22;17777;48.770;8.944;2022-08-21T08:02:54;23.00;46.70
31129;DHT22;17777;48.770;8.944;2022-08-21T08:05:24;23.10;47.20
31129;DHT22;17777;48.770;8.944;2022-08-21T08:07:52;23.20;46.60
31129;DHT22;17777;48.770;8.944;2022-08-21T08:10:19;23.40;46.60
31129;DHT22;17777;48.770;8.944;2022-08-21T08:12:47;23.50;46.60
31129;DHT22;17777;48.770;8.944;2022-08-21T08:15:16;23.60;47.20
31129;DHT22;17777;48.770;8.944;2022-08-21T08:17:44;23.70;46.40
31129;DHT22;17777;48.770;8.944;2022-08-21T08:20:12;23.80;46.30
31129;DHT22;17777;48.770;8.944;2022-08-21T08:22:39;23.90;46.20
31129;DHT22;17777;48.770;8.944;2022-08-21T08:25:07;24.00;46.10
31129;DHT22;17777;48.770;8.944;2022-08-21T08:27:34;24.10;46.10
31129;DHT22;17777;48.770;8.944;2022-08-21T08:30:01;24.20;46.10
31129;DHT22;17777;48.770;8.944;2022-08-21T08:32:27;24.20;45.90
31129;DHT22;17777;48.770;8.944;2022-08-21T08:34:52;24.40;45.90
31129;DHT22;17777;48.770;8.944;2022-08-21T08:37:20;24.50;45.80
31129;DHT22;17777;48.770;8.944;2022-08-21T08:39:46;24.50;45.70
31129;DHT22;17777;48.770;8.944;2022-08-21T08:42:13;24.60;45.70
31129;DHT22;17777;48.770;8.944;2022-08-21T08:44:45;24.70;45.60
31129;DHT22;17777;48.770;8.944;2022-08-21T08:47:14;24.80;45.50
31129;DHT22;17777;48.770;8.944;2022-08-21T08:50:06;24.90;45.40
31129;DHT22;17777;48.770;8.944;2022-08-21T08:52:43;25.00;45.10
31129;DHT22;17777;48.770;8.944;2022-08-21T08:55:21;25.10;45.10
31129;DHT22;17777;48.770;8.944;2022-08-21T08:57:51;25.20;45.20
31129;DHT22;17777;48.770;8.944;2022-08-21T09:00:20;25.30;45.10
31129;DHT22;17777;48.770;8.944;2022-08-21T09:02:47;25.40;45.10
31129;DHT22;17777;48.770;8.944;2022-08-21T09:05:40;25.40;45.00
31129;DHT22;17777;48.770;8.944;2022-08-21T09:08:50;25.50;44.60
31129;DHT22;17777;48.770;8.944;2022-08-21T09:11:45;25.60;44.60
31129;DHT22;17777;48.770;8.944;2022-08-21T09:14:29;25.70;44.60
31129;DHT22;17777;48.770;8.944;2022-08-21T09:20:10;25.90;44.70
31129;DHT22;17777;48.770;8.944;2022-08-21T09:23:09;26.00;44.80
31129;DHT22;17777;48.770;8.944;2022-08-21T09:26:07;26.10;44.50
31129;DHT22;17777;48.770;8.944;2022-08-21T09:28:41;26.20;44.60
31129;DHT22;17777;48.770;8.944;2022-08-21T09:31:16;26.20;44.50
31129;DHT22;17777;48.770;8.944;2022-08-21T09:33:47;26.30;44.40
31129;DHT22;17777;48.770;8.944;2022-08-21T09:36:29;26.40;44.50
31129;DHT22;17777;48.770;8.944;2022-08-21T09:38:59;26.40;44.10
31129;DHT22;17777;48.770;8.944;2022-08-21T09:41:29;26.50;44.40
31129;DHT22;17777;48.770;8.944;2022-08-21T09:43:57;26.60;44.20
31129;DHT22;17777;48.770;8.944;2022-08-21T09:46:27;26.70;44.30
31129;DHT22;17777;48.770;8.944;2022-08-21T09:48:59;26.90;44.20
31129;DHT22;17777;48.770;8.944;2022-08-21T09:51:32;26.90;44.10
31129;DHT22;17777;48.770;8.944;2022-08-21T09:56:59;27.20;43.70
31129;DHT22;17777;48.770;8.944;2022-08-21T09:59:53;27.20;43.30
31129;DHT22;17777;48.770;8.944;2022-08-21T10:04:58;27.40;43.70
31129;DHT22;17777;48.770;8.944;2022-08-21T10:07:27;27.50;43.60
31129;DHT22;17777;48.770;8.944;2022-08-21T10:10:04;27.60;43.60
31129;DHT22;17777;48.770;8.944;2022-08-21T10:13:04;27.70;43.50
31129;DHT22;17777;48.770;8.944;2022-08-21T10:21:59;27.90;43.80
31129;DHT22;17777;48.770;8.944;2022-08-21T10:27:42;28.10;42.80
31129;DHT22;17777;48.770;8.944;2022-08-21T10:32:59;28.30;42.70
31129;DHT22;17777;48.770;8.944;2022-08-21T10:35:41;28.40;42.90
31129;DHT22;17777;48.770;8.944;2022-08-21T10:38:37;28.40;42.40
31129;DHT22;17777;48.770;8.944;2022-08-21T10:41:40;28.50;42.50
31129;DHT22;17777;48.770;8.944;2022-08-21T10:44:33;28.60;42.20
31129;DHT22;17777;48.770;8.944;2022-08-21T10:47:29;28.80;42.10
31129;DHT22;17777;48.770;8.944;2022-08-21T10:50:19;28.80;41.90
31129;DHT22;17777;48.770;8.944;2022-08-21T10:55:56;29.00;42.00
31129;DHT22;17777;48.770;8.944;2022-08-21T10:58:28;29.10;41.90
31129;DHT22;17777;48.770;8.944;2022-08-21T11:01:31;29.10;42.10
31129;DHT22;17777;48.770;8.944;2022-08-21T11:04:21;29.20;41.40
31129;DHT22;17777;48.770;8.944;2022-08-21T11:09:47;29.30;41.30
31129;DHT22;17777;48.770;8.944;2022-08-21T11:12:34;29.40;41.80
31129;DHT22;17777;48.770;8.944;2022-08-21T11:23:45;29.70;41.50
31129;DHT22;17777;48.770;8.944;2022-08-21T11:26:34;29.70;41.40
31129;DHT22;17777;48.770;8.944;2022-08-21T11:29:17;29.70;41.10
31129;DHT22;17777;48.770;8.944;2022-08-21T11:35:06;29.80;40.80
31129;DHT22;17777;48.770;8.944;2022-08-21T11:43:40;29.80;40.80
31129;DHT22;17777;48.770;8.944;2022-08-21T11:49:59;29.80;40.50
31129;DHT22;17777;48.770;8.944;2022-08-21T11:52:45;29.80;40.40
31129;DHT22;17777;48.770;8.944;2022-08-21T11:55:26;29.80;40.40
31129;DHT22;17777;48.770;8.944;2022-08-21T11:58:36;29.90;40.30
31129;DHT22;17777;48.770;8.944;2022-08-21T12:01:15;29.90;40.40
31129;DHT22;17777;48.770;8.944;2022-08-21T12:03:56;30.00;40.70
31129;DHT22;17777;48.770;8.944;2022-08-21T12:06:35;30.00;40.50
31129;DHT22;17777;48.770;8.944;2022-08-21T12:09:06;30.00;40.20
31129;DHT22;17777;48.770;8.944;2022-08-21T12:12:11;30.10;40.60
31129;DHT22;17777;48.770;8.944;2022-08-21T12:14:50;30.00;40.10
31129;DHT22;17777;48.770;8.944;2022-08-21T12:17:22;30.00;40.00
31129;DHT22;17777;48.770;8.944;2022-08-21T12:20:00;30.00;40.10
31129;DHT22;17777;48.770;8.944;2022-08-21T12:22:39;30.00;40.00
31129;DHT22;17777;48.770;8.944;2022-08-21T12:25:11;30.10;40.00
31129;DHT22;17777;48.770;8.944;2022-08-21T12:27:52;30.00;40.00
31129;DHT22;17777;48.770;8.944;2022-08-21T12:33:03;30.10;40.40
31129;DHT22;17777;48.770;8.944;2022-08-21T12:35:39;30.00;39.80
31129;DHT22;17777;48.770;8.944;2022-08-21T12:38:21;30.10;39.80
31129;DHT22;17777;48.770;8.944;2022-08-21T12:41:22;30.10;39.60
31129;DHT22;17777;48.770;8.944;2022-08-21T12:43:57;30.20;39.50
31129;DHT22;17777;48.770;8.944;2022-08-21T12:46:42;30.20;39.50
31129;DHT22;17777;48.770;8.944;2022-08-21T12:49:36;30.20;39.40
31129;DHT22;17777;48.770;8.944;2022-08-21T12:52:19;30.30;39.50
31129;DHT22;17777;48.770;8.944;2022-08-21T12:54:47;30.30;39.40
31129;DHT22;17777;48.770;8.944;2022-08-21T12:57:25;30.30;39.70
31129;DHT22;17777;48.770;8.944;2022-08-21T12:59:55;30.30;39.30
31129;DHT22;17777;48.770;8.944;2022-08-21T13:02:26;30.30;39.60
31129;DHT22;17777;48.770;8.944;2022-08-21T13:04:55;30.30;39.50
31129;DHT22;17777;48.770;8.944;2022-08-21T13:07:26;30.30;39.40
31129;DHT22;17777;48.770;8.944;2022-08-21T13:10:00;30.30;39.30
31129;DHT22;17777;48.770;8.944;2022-08-21T13:12:30;30.20;39.30
31129;DHT22;17777;48.770;8.944;2022-08-21T13:15:00;30.20;39.40
31129;DHT22;17777;48.770;8.944;2022-08-21T13:17:31;30.20;39.20
31129;DHT22;17777;48.770;8.944;2022-08-21T13:20:21;30.10;39.10
31129;DHT22;17777;48.770;8.944;2022-08-21T13:22:49;30.10;38.80
31129;DHT22;17777;48.770;8.944;2022-08-21T13:25:21;30.10;39.20
31129;DHT22;17777;48.770;8.944;2022-08-21T13:28:11;30.00;39.00
31129;DHT22;17777;48.770;8.944;2022-08-21T13:30:52;30.00;38.70
31129;DHT22;17777;48.770;8.944;2022-08-21T13:33:22;30.00;38.80
31129;DHT22;17777;48.770;8.944;2022-08-21T13:38:17;30.00;39.20
31129;DHT22;17777;48.770;8.944;2022-08-21T13:40:49;30.00;39.30
31129;DHT22;17777;48.770;8.944;2022-08-21T13:43:19;30.00;39.20
31129;DHT22;17777;48.770;8.944;2022-08-21T13:45:52;30.00;39.30
31129;DHT22;17777;48.770;8.944;2022-08-21T13:48:19;30.00;39.00
31129;DHT22;17777;48.770;8.944;2022-08-21T13:50:47;30.10;39.20
31129;DHT22;17777;48.770;8.944;2022-08-21T13:56:21;30.10;38.50
31129;DHT22;17777;48.770;8.944;2022-08-21T13:58:54;30.20;38.70
31129;DHT22;17777;48.770;8.944;2022-08-21T14:01:31;30.20;39.00
31129;DHT22;17777;48.770;8.944;2022-08-21T14:04:20;30.30;38.80
31129;DHT22;17777;48.770;8.944;2022-08-21T14:06:48;30.30;38.80
31129;DHT22;17777;48.770;8.944;2022-08-21T14:09:39;30.40;39.00
31129;DHT22;17777;48.770;8.944;2022-08-21T14:12:14;30.50;38.40
31129;DHT22;17777;48.770;8.944;2022-08-21T14:14:41;30.50;38.50
31129;DHT22;17777;48.770;8.944;2022-08-21T14:17:12;30.50;38.70
31129;DHT22;17777;48.770;8.944;2022-08-21T14:19:44;30.50;38.50
31129;DHT22;17777;48.770;8.944;2022-08-21T14:25:00;30.60;38.10
31129;DHT22;17777;48.770;8.944;2022-08-21T14:27:43;30.60;38.40
31129;DHT22;17777;48.770;8.944;2022-08-21T14:30:20;30.60;38.40
31129;DHT22;17777;48.770;8.944;2022-08-21T14:32:48;30.70;38.30
31129;DHT22;17777;48.770;8.944;2022-08-21T14:35:14;30.70;38.50
31129;DHT22;17777;48.770;8.944;2022-08-21T14:37:45;30.70;38.40
31129;DHT22;17777;48.770;8.944;2022-08-21T14:40:11;30.80;38.30
31129;DHT22;17777;48.770;8.944;2022-08-21T14:42:39;30.80;38.30
31129;DHT22;17777;48.770;8.944;2022-08-21T14:45:14;30.80;38.20
31129;DHT22;17777;48.770;8.944;2022-08-21T14:47:41;30.80;38.10
31129;DHT22;17777;48.770;8.944;2022-08-21T14:50:09;30.90;38.20
31129;DHT22;17777;48.770;8.944;2022-08-21T14:52:36;30.90;38.20
31129;DHT22;17777;48.770;8.944;2022-08-21T14:55:03;30.90;38.10
31129;DHT22;17777;48.770;8.944;2022-08-21T14:57:31;30.90;38.10
31129;DHT22;17777;48.770;8.944;2022-08-21T14:59:57;30.90;37.90
31129;DHT22;17777;48.770;8.944;2022-08-21T15:02:22;31.00;37.90
31129;DHT22;17777;48.770;8.944;2022-08-21T15:04:48;31.00;37.90
31129;DHT22;17777;48.770;8.944;2022-08-21T15:07:14;31.00;37.80
31129;DHT22;17777;48.770;8.944;2022-08-21T15:09:40;31.00;37.70
31129;DHT22;17777;48.770;8.944;2022-08-21T15:12:06;31.00;37.80
31129;DHT22;17777;48.770;8.944;2022-08-21T15:14:35;31.00;37.60
31129;DHT22;17777;48.770;8.944;2022-08-21T15:17:02;31.00;38.20
31129;DHT22;17777;48.770;8.944;2022-08-21T15:19:29;31.00;37.50
31129;DHT22;17777;48.770;8.944;2022-08-21T15:21:55;31.00;37.40
31129;DHT22;17777;48.770;8.944;2022-08-21T15:24:21;31.00;37.40
31129;DHT22;17777;48.770;8.944;2022-08-21T15:26:48;31.00;37.30
31129;DHT22;17777;48.770;8.944;2022-08-21T15:29:14;31.00;37.30
31129;DHT22;17777;48.770;8.944;2022-08-21T15:31:55;30.90;37.30
31129;DHT22;17777;48.770;8.944;2022-08-21T15:34:27;30.90;36.90
31129;DHT22;17777;48.770;8.944;2022-08-21T15:36:56;30.90;37.30
31129;DHT22;17777;48.770;8.944;2022-08-21T15:39:23;31.00;37.40
31129;DHT22;17777;48.770;8.944;2022-08-21T15:41:50;30.90;37.20
31129;DHT22;17777;48.770;8.944;2022-08-21T15:44:16;30.90;37.20
31129;DHT22;17777;48.770;8.944;2022-08-21T15:46:42;30.90;37.20
31129;DHT22;17777;48.770;8.944;2022-08-21T15:49:10;30.90;37.00
31129;DHT22;17777;48.770;8.944;2022-08-21T15:51:36;30.90;37.00
31129;DHT22;17777;48.770;8.944;2022-08-21T15:54:02;30.90;37.00
31129;DHT22;17777;48.770;8.944;2022-08-21T15:56:33;30.90;37.00
31129;DHT22;17777;48.770;8.944;2022-08-21T15:59:08;30.90;36.90
31129;DHT22;17777;48.770;8.944;2022-08-21T16:01:39;30.80;36.80
31129;DHT22;17777;48.770;8.944;2022-08-21T16:04:06;30.80;36.90
31129;DHT22;17777;48.770;8.944;2022-08-21T16:06:32;30.80;36.80
31129;DHT22;17777;48.770;8.944;2022-08-21T16:08:59;30.80;36.80
31129;DHT22;17777;48.770;8.944;2022-08-21T16:11:25;30.80;36.80
31129;DHT22;17777;48.770;8.944;2022-08-21T16:13:52;30.80;36.80
31129;DHT22;17777;48.770;8.944;2022-08-21T16:16:22;30.90;36.80
31129;DHT22;17777;48.770;8.944;2022-08-21T16:18:50;30.80;36.60
31129;DHT22;17777;48.770;8.944;2022-08-21T16:21:16;30.80;36.70
31129;DHT22;17777;48.770;8.944;2022-08-21T16:23:43;30.80;36.60
31129;DHT22;17777;48.770;8.944;2022-08-21T16:26:11;30.80;36.60
31129;DHT22;17777;48.770;8.944;2022-08-21T16:28:38;30.70;36.60
31129;DHT22;17777;48.770;8.944;2022-08-21T16:31:07;30.70;36.60
31129;DHT22;17777;48.770;8.944;2022-08-21T16:33:39;30.70;36.60
31129;DHT22;17777;48.770;8.944;2022-08-21T16:36:10;30.70;36.50
31129;DHT22;17777;48.770;8.944;2022-08-21T16:38:37;30.70;36.50
31129;DHT22;17777;48.770;8.944;2022-08-21T16:41:09;30.70;36.50
31129;DHT22;17777;48.770;8.944;2022-08-21T16:43:38;30.60;37.10
31129;DHT22;17777;48.770;8.944;2022-08-21T16:46:07;30.60;36.40
31129;DHT22;17777;48.770;8.944;2022-08-21T16:48:34;30.60;36.40
31129;DHT22;17777;48.770;8.944;2022-08-21T16:50:59;30.60;36.40
31129;DHT22;17777;48.770;8.944;2022-08-21T16:53:25;30.60;36.40
31129;DHT22;17777;48.770;8.944;2022-08-21T16:55:52;30.50;36.30
31129;DHT22;17777;48.770;8.944;2022-08-21T16:58:39;30.50;36.40